sensor_id;sensor_type;location;lat;lon;timestamp;P1;durP1;ratioP1;P2;durP2;ratioP2
18455;SDS011;9357;49.900;8.208;2023-04-03T00:00:20;5.55;;;3.72;;
18455;SDS011;9357;49.900;8.208;2023-04-03T00:01:53;4.78;;;4.00;;
18455;SDS011;9357;49.900;8.208;2023-04-03T00:03:26;6.32;;;3.53;;
18455;SDS011;9357;49.900;8.208;2023-04-03T00:05:00;4.40;;;3.50;;
18455;SDS011;9357;49.900;8.208;2023-04-03T00:06:32;5.70;;;3.40;;
18455;SDS011;9357;49.900;8.208;2023-04-03T00:08:07;5.03;;;3.50;;
18455;SDS011;9357;49.900;8.208;2023-04-03T00:09:40;4.05;;;3.10;;
18455;SDS011;9357;49.900;8.208;2023-04-03T00:11:13;7.93;;;4.10;;
18455;SDS011;9357;49.900;8.208;2023-04-03T00:12:46;4.45;;;3.30;;
18455;SDS011;9357;49.900;8.208;2023-04-03T00:14:19;4.05;;;3.60;;
18455;SDS011;9357;49.900;8.208;2023-04-03T00:15:52;5.07;;;3.45;;
18455;SDS011;9357;49.900;8.208;2023-04-03T00:17:25;4.97;;;3.50;;
18455;SDS011;9357;49.900;8.208;2023-04-03T00:18:58;4.60;;;3.17;;
18455;SDS011;9357;49.900;8.208;2023-04-03T00:20:30;5.07;;;3.42;;
18455;SDS011;9357;49.900;8.208;2023-04-03T00:22:04;4.18;;;3.10;;
18455;SDS011;9357;49.900;8.208;2023-04-03T00:23:38;4.22;;;3.00;;
18455;SDS011;9357;49.900;8.208;2023-04-03T00:25:10;3.58;;;2.80;;
18455;SDS011;9357;49.900;8.208;2023-04-03T00:26:43;6.18;;;3.17;;
18455;SDS011;9357;49.900;8.208;2023-04-03T00:28:15;3.08;;;2.45;;
18455;SDS011;9357;49.900;8.208;2023-04-03T00:29:48;3.42;;;2.60;;
18455;SDS011;9357;49.900;8.208;2023-04-03T00:31:19;5.15;;;2.90;;
18455;SDS011;9357;49.900;8.208;2023-04-03T00:32:53;3.85;;;2.53;;
18455;SDS011;9357;49.900;8.208;2023-04-03T00:34:26;4.38;;;2.80;;
18455;SDS011;9357;49.900;8.208;2023-04-03T00:35:59;3.00;;;2.60;;
18455;SDS011;9357;49.900;8.208;2023-04-03T00:37:31;4.32;;;2.40;;
18455;SDS011;9357;49.900;8.208;2023-04-03T00:39:06;4.07;;;2.70;;
18455;SDS011;9357;49.900;8.208;2023-04-03T00:40:41;3.72;;;2.50;;
18455;SDS011;9357;49.900;8.208;2023-04-03T00:42:15;4.22;;;2.65;;
18455;SDS011;9357;49.900;8.208;2023-04-03T00:43:48;3.33;;;2.47;;
18455;SDS011;9357;49.900;8.208;2023-04-03T00:45:29;2.90;;;2.40;;
18455;SDS011;9357;49.900;8.208;2023-04-03T00:47:05;2.88;;;2.53;;
18455;SDS011;9357;49.900;8.208;2023-04-03T00:48:41;4.07;;;2.53;;
18455;SDS011;9357;49.900;8.208;2023-04-03T00:50:16;3.22;;;2.42;;
18455;SDS011;9357;49.900;8.208;2023-04-03T00:51:48;3.22;;;2.38;;
18455;SDS011;9357;49.900;8.208;2023-04-03T00:53:23;3.80;;;2.53;;
18455;SDS011;9357;49.900;8.208;2023-04-03T00:54:59;4.90;;;3.00;;
18455;SDS011;9357;49.900;8.208;2023-04-03T00:56:34;3.22;;;2.50;;
18455;SDS011;9357;49.900;8.208;2023-04-03T00:58:08;5.20;;;2.78;;
18455;SDS011;9357;49.900;8.208;2023-04-03T00:59:43;3.97;;;2.75;;
18455;SDS011;9357;49.900;8.208;2023-04-03T01:01:20;3.83;;;2.70;;
18455;SDS011;9357;49.900;8.208;2023-04-03T01:02:56;3.92;;;2.55;;
18455;SDS011;9357;49.900;8.208;2023-04-03T01:04:28;3.75;;;2.60;;
18455;SDS011;9357;49.900;8.208;2023-04-03T01:06:03;3.75;;;2.58;;
18455;SDS011;9357;49.900;8.208;2023-04-03T01:07:35;3.20;;;2.50;;
18455;SDS011;9357;49.900;8.208;2023-04-03T01:09:09;3.92;;;2.40;;
18455;SDS011;9357;49.900;8.208;2023-04-03T01:10:43;2.72;;;2.42;;
18455;SDS011;9357;49.900;8.208;2023-04-03T01:12:16;4.85;;;2.80;;
18455;SDS011;9357;49.900;8.208;2023-04-03T01:13:50;4.93;;;2.33;;
18455;SDS011;9357;49.900;8.208;2023-04-03T01:15:23;4.20;;;2.47;;
18455;SDS011;9357;49.900;8.208;2023-04-03T01:16:59;4.38;;;2.80;;
18455;SDS011;9357;49.900;8.208;2023-04-03T01:18:32;3.35;;;2.38;;
18455;SDS011;9357;49.900;8.208;2023-04-03T01:20:14;6.70;;;2.63;;
18455;SDS011;9357;49.900;8.208;2023-04-03T01:22:14;3.97;;;2.30;;
18455;SDS011;9357;49.900;8.208;2023-04-03T01:23:53;3.60;;;2.47;;
18455;SDS011;9357;49.900;8.208;2023-04-03T01:25:39;4.10;;;2.58;;
18455;SDS011;9357;49.900;8.208;2023-04-03T01:27:14;3.03;;;2.33;;
18455;SDS011;9357;49.900;8.208;2023-04-03T01:28:48;3.72;;;2.35;;
18455;SDS011;9357;49.900;8.208;2023-04-03T01:30:21;3.17;;;2.45;;
18455;SDS011;9357;49.900;8.208;2023-04-03T01:32:02;5.88;;;2.65;;
18455;SDS011;9357;49.900;8.208;2023-04-03T01:33:35;4.43;;;2.40;;
18455;SDS011;9357;49.900;8.208;2023-04-03T01:35:08;5.32;;;2.28;;
18455;SDS011;9357;49.900;8.208;2023-04-03T01:36:42;4.22;;;2.28;;
18455;SDS011;9357;49.900;8.208;2023-04-03T01:38:15;4.03;;;2.67;;
18455;SDS011;9357;49.900;8.208;2023-04-03T01:39:47;3.60;;;2.35;;
18455;SDS011;9357;49.900;8.208;2023-04-03T01:41:20;3.25;;;2.55;;
18455;SDS011;9357;49.900;8.208;2023-04-03T01:42:53;4.32;;;2.30;;
18455;SDS011;9357;49.900;8.208;2023-04-03T01:44:26;2.67;;;2.20;;
18455;SDS011;9357;49.900;8.208;2023-04-03T01:45:59;4.32;;;2.30;;
18455;SDS011;9357;49.900;8.208;2023-04-03T01:47:32;3.10;;;2.30;;
18455;SDS011;9357;49.900;8.208;2023-04-03T01:49:05;2.30;;;2.03;;
18455;SDS011;9357;49.900;8.208;2023-04-03T01:50:38;2.80;;;1.92;;
18455;SDS011;9357;49.900;8.208;2023-04-03T01:52:11;3.47;;;2.20;;
18455;SDS011;9357;49.900;8.208;2023-04-03T01:53:43;3.10;;;2.28;;
18455;SDS011;9357;49.900;8.208;2023-04-03T01:55:16;4.05;;;2.30;;
18455;SDS011;9357;49.900;8.208;2023-04-03T01:56:49;3.60;;;2.20;;
18455;SDS011;9357;49.900;8.208;2023-04-03T01:58:22;3.70;;;2.22;;
18455;SDS011;9357;49.900;8.208;2023-04-03T01:59:55;3.72;;;2.30;;
18455;SDS011;9357;49.900;8.208;2023-04-03T02:01:28;3.90;;;2.47;;
18455;SDS011;9357;49.900;8.208;2023-04-03T02:03:02;3.38;;;2.25;;
18455;SDS011;9357;49.900;8.208;2023-04-03T02:04:35;4.15;;;2.40;;
18455;SDS011;9357;49.900;8.208;2023-04-03T02:06:08;2.97;;;2.10;;
18455;SDS011;9357;49.900;8.208;2023-04-03T02:07:43;2.20;;;2.00;;
18455;SDS011;9357;49.900;8.208;2023-04-03T02:09:15;4.00;;;2.20;;
18455;SDS011;9357;49.900;8.208;2023-04-03T02:10:47;3.78;;;2.05;;
18455;SDS011;9357;49.900;8.208;2023-04-03T02:12:21;2.20;;;2.00;;
18455;SDS011;9357;49.900;8.208;2023-04-03T02:13:52;4.50;;;2.17;;
18455;SDS011;9357;49.900;8.208;2023-04-03T02:15:25;3.05;;;2.03;;
18455;SDS011;9357;49.900;8.208;2023-04-03T02:16:59;5.00;;;2.40;;
18455;SDS011;9357;49.900;8.208;2023-04-03T02:18:37;5.45;;;2.20;;
18455;SDS011;9357;49.900;8.208;2023-04-03T02:20:10;5.03;;;2.38;;
18455;SDS011;9357;49.900;8.208;2023-04-03T02:21:42;3.80;;;1.98;;
18455;SDS011;9357;49.900;8.208;2023-04-03T02:23:15;2.83;;;1.95;;
18455;SDS011;9357;49.900;8.208;2023-04-03T02:24:48;4.40;;;2.40;;
18455;SDS011;9357;49.900;8.208;2023-04-03T02:26:21;2.83;;;1.83;;
18455;SDS011;9357;49.900;8.208;2023-04-03T02:27:54;2.92;;;1.90;;
18455;SDS011;9357;49.900;8.208;2023-04-03T02:29:27;3.95;;;2.10;;
18455;SDS011;9357;49.900;8.208;2023-04-03T02:30:59;3.47;;;2.05;;
18455;SDS011;9357;49.900;8.208;2023-04-03T02:32:32;3.53;;;1.80;;
18455;SDS011;9357;49.900;8.208;2023-04-03T02:34:06;5.88;;;1.90;;
18455;SDS011;9357;49.900;8.208;2023-04-03T02:35:38;2.78;;;1.73;;
18455;SDS011;9357;49.900;8.208;2023-04-03T02:37:11;3.20;;;1.98;;
18455;SDS011;9357;49.900;8.208;2023-04-03T02:38:44;3.85;;;2.20;;
18455;SDS011;9357;49.900;8.208;2023-04-03T02:40:17;5.13;;;1.95;;
18455;SDS011;9357;49.900;8.208;2023-04-03T02:41:50;2.40;;;2.00;;
18455;SDS011;9357;49.900;8.208;2023-04-03T02:43:23;3.92;;;2.08;;
18455;SDS011;9357;49.900;8.208;2023-04-03T02:44:55;5.00;;;1.92;;
18455;SDS011;9357;49.900;8.208;2023-04-03T02:46:30;2.90;;;1.85;;
18455;SDS011;9357;49.900;8.208;2023-04-03T02:48:03;4.07;;;1.85;;
18455;SDS011;9357;49.900;8.208;2023-04-03T02:49:37;4.75;;;2.00;;
18455;SDS011;9357;49.900;8.208;2023-04-03T02:51:10;4.35;;;2.05;;
18455;SDS011;9357;49.900;8.208;2023-04-03T02:52:42;3.33;;;2.30;;
18455;SDS011;9357;49.900;8.208;2023-04-03T02:54:14;4.22;;;1.98;;
18455;SDS011;9357;49.900;8.208;2023-04-03T02:55:46;3.10;;;1.98;;
18455;SDS011;9357;49.900;8.208;2023-04-03T02:57:19;2.25;;;2.05;;
18455;SDS011;9357;49.900;8.208;2023-04-03T02:58:51;3.70;;;2.22;;
18455;SDS011;9357;49.900;8.208;2023-04-03T03:00:24;2.95;;;2.13;;
18455;SDS011;9357;49.900;8.208;2023-04-03T03:01:56;3.63;;;2.45;;
18455;SDS011;9357;49.900;8.208;2023-04-03T03:03:29;4.63;;;2.05;;
18455;SDS011;9357;49.900;8.208;2023-04-03T03:05:03;3.42;;;2.10;;
18455;SDS011;9357;49.900;8.208;2023-04-03T03:06:36;4.47;;;2.20;;
18455;SDS011;9357;49.900;8.208;2023-04-03T03:08:09;2.58;;;2.10;;
18455;SDS011;9357;49.900;8.208;2023-04-03T03:09:42;3.50;;;2.00;;
18455;SDS011;9357;49.900;8.208;2023-04-03T03:11:15;3.30;;;1.95;;
18455;SDS011;9357;49.900;8.208;2023-04-03T03:12:47;5.25;;;2.72;;
18455;SDS011;9357;49.900;8.208;2023-04-03T03:14:20;4.25;;;2.35;;
18455;SDS011;9357;49.900;8.208;2023-04-03T03:15:53;3.67;;;2.17;;
18455;SDS011;9357;49.900;8.208;2023-04-03T03:17:25;7.05;;;2.47;;
18455;SDS011;9357;49.900;8.208;2023-04-03T03:18:58;3.80;;;2.20;;
18455;SDS011;9357;49.900;8.208;2023-04-03T03:20:33;4.68;;;2.35;;
18455;SDS011;9357;49.900;8.208;2023-04-03T03:22:06;3.53;;;2.10;;
18455;SDS011;9357;49.900;8.208;2023-04-03T03:23:39;2.97;;;2.13;;
18455;SDS011;9357;49.900;8.208;2023-04-03T03:25:12;4.32;;;2.20;;
18455;SDS011;9357;49.900;8.208;2023-04-03T03:26:45;4.18;;;2.22;;
18455;SDS011;9357;49.900;8.208;2023-04-03T03:28:18;3.42;;;2.20;;
18455;SDS011;9357;49.900;8.208;2023-04-03T03:29:50;5.78;;;2.00;;
18455;SDS011;9357;49.900;8.208;2023-04-03T03:31:22;4.25;;;2.08;;
18455;SDS011;9357;49.900;8.208;2023-04-03T03:32:55;2.35;;;2.05;;
18455;SDS011;9357;49.900;8.208;2023-04-03T03:34:27;2.67;;;2.03;;
18455;SDS011;9357;49.900;8.208;2023-04-03T03:36:01;3.00;;;2.17;;
18455;SDS011;9357;49.900;8.208;2023-04-03T03:37:35;3.88;;;2.20;;
18455;SDS011;9357;49.900;8.208;2023-04-03T03:39:08;2.58;;;2.00;;
18455;SDS011;9357;49.900;8.208;2023-04-03T03:40:40;2.72;;;1.95;;
18455;SDS011;9357;49.900;8.208;2023-04-03T03:42:13;2.55;;;1.85;;
18455;SDS011;9357;49.900;8.208;2023-04-03T03:43:46;4.60;;;2.10;;
18455;SDS011;9357;49.900;8.208;2023-04-03T03:45:19;5.05;;;2.15;;
18455;SDS011;9357;49.900;8.208;2023-04-03T03:46:52;4.22;;;2.40;;
18455;SDS011;9357;49.900;8.208;2023-04-03T03:48:25;3.85;;;2.22;;
18455;SDS011;9357;49.900;8.208;2023-04-03T03:49:57;4.10;;;2.53;;
18455;SDS011;9357;49.900;8.208;2023-04-03T03:51:31;2.88;;;2.13;;
18455;SDS011;9357;49.900;8.208;2023-04-03T03:53:04;4.57;;;2.25;;
18455;SDS011;9357;49.900;8.208;2023-04-03T03:54:36;3.20;;;1.92;;
18455;SDS011;9357;49.900;8.208;2023-04-03T03:56:09;3.97;;;2.00;;
18455;SDS011;9357;49.900;8.208;2023-04-03T03:57:42;3.88;;;2.13;;
18455;SDS011;9357;49.900;8.208;2023-04-03T03:59:15;2.45;;;2.00;;
18455;SDS011;9357;49.900;8.208;2023-04-03T04:00:48;4.10;;;2.17;;
18455;SDS011;9357;49.900;8.208;2023-04-03T04:02:20;4.38;;;2.10;;
18455;SDS011;9357;49.900;8.208;2023-04-03T04:03:53;4.22;;;2.20;;
18455;SDS011;9357;49.900;8.208;2023-04-03T04:05:27;3.80;;;2.30;;
18455;SDS011;9357;49.900;8.208;2023-04-03T04:07:01;3.28;;;1.95;;
18455;SDS011;9357;49.900;8.208;2023-04-03T04:08:34;3.13;;;1.95;;
18455;SDS011;9357;49.900;8.208;2023-04-03T04:10:07;5.68;;;2.25;;
18455;SDS011;9357;49.900;8.208;2023-04-03T04:11:41;3.95;;;2.05;;
18455;SDS011;9357;49.900;8.208;2023-04-03T04:13:13;4.18;;;2.30;;
18455;SDS011;9357;49.900;8.208;2023-04-03T04:14:46;3.05;;;1.90;;
18455;SDS011;9357;49.900;8.208;2023-04-03T04:16:18;3.75;;;2.33;;
18455;SDS011;9357;49.900;8.208;2023-04-03T04:17:50;4.53;;;2.15;;
18455;SDS011;9357;49.900;8.208;2023-04-03T04:19:22;4.07;;;1.83;;
18455;SDS011;9357;49.900;8.208;2023-04-03T04:20:55;3.25;;;1.92;;
18455;SDS011;9357;49.900;8.208;2023-04-03T04:22:29;3.35;;;1.70;;
18455;SDS011;9357;49.900;8.208;2023-04-03T04:24:02;3.85;;;2.10;;
18455;SDS011;9357;49.900;8.208;2023-04-03T04:25:35;4.28;;;2.25;;
18455;SDS011;9357;49.900;8.208;2023-04-03T04:27:08;5.20;;;1.98;;
18455;SDS011;9357;49.900;8.208;2023-04-03T04:28:41;3.92;;;1.80;;
18455;SDS011;9357;49.900;8.208;2023-04-03T04:30:14;3.10;;;1.80;;
18455;SDS011;9357;49.900;8.208;2023-04-03T04:31:48;4.28;;;1.70;;
18455;SDS011;9357;49.900;8.208;2023-04-03T04:33:21;4.50;;;1.88;;
18455;SDS011;9357;49.900;8.208;2023-04-03T04:34:53;5.90;;;1.92;;
18455;SDS011;9357;49.900;8.208;2023-04-03T04:36:26;3.58;;;1.90;;
18455;SDS011;9357;49.900;8.208;2023-04-03T04:38:00;5.57;;;2.00;;
18455;SDS011;9357;49.900;8.208;2023-04-03T04:39:33;4.05;;;1.60;;
18455;SDS011;9357;49.900;8.208;2023-04-03T04:41:07;4.13;;;1.70;;
18455;SDS011;9357;49.900;8.208;2023-04-03T04:42:40;3.85;;;1.75;;
18455;SDS011;9357;49.900;8.208;2023-04-03T04:44:12;4.75;;;1.95;;
18455;SDS011;9357;49.900;8.208;2023-04-03T04:45:45;5.40;;;1.60;;
18455;SDS011;9357;49.900;8.208;2023-04-03T04:47:18;3.85;;;1.50;;
18455;SDS011;9357;49.900;8.208;2023-04-03T04:48:51;5.40;;;1.70;;
18455;SDS011;9357;49.900;8.208;2023-04-03T04:50:24;5.65;;;1.60;;
18455;SDS011;9357;49.900;8.208;2023-04-03T04:51:56;4.43;;;1.63;;
18455;SDS011;9357;49.900;8.208;2023-04-03T04:53:30;3.22;;;2.03;;
18455;SDS011;9357;49.900;8.208;2023-04-03T04:55:03;6.40;;;1.98;;
18455;SDS011;9357;49.900;8.208;2023-04-03T04:56:36;5.05;;;1.90;;
18455;SDS011;9357;49.900;8.208;2023-04-03T04:58:09;5.10;;;1.50;;
18455;SDS011;9357;49.900;8.208;2023-04-03T04:59:42;3.70;;;1.60;;
18455;SDS011;9357;49.900;8.208;2023-04-03T05:01:15;5.88;;;1.88;;
18455;SDS011;9357;49.900;8.208;2023-04-03T05:02:47;4.63;;;1.70;;
18455;SDS011;9357;49.900;8.208;2023-04-03T05:04:20;5.07;;;1.73;;
18455;SDS011;9357;49.900;8.208;2023-04-03T05:05:53;3.90;;;1.67;;
18455;SDS011;9357;49.900;8.208;2023-04-03T05:07:26;4.60;;;1.60;;
18455;SDS011;9357;49.900;8.208;2023-04-03T05:09:00;3.95;;;1.60;;
18455;SDS011;9357;49.900;8.208;2023-04-03T05:10:33;5.15;;;1.48;;
18455;SDS011;9357;49.900;8.208;2023-04-03T05:12:06;5.10;;;1.85;;
18455;SDS011;9357;49.900;8.208;2023-04-03T05:13:39;6.18;;;1.92;;
18455;SDS011;9357;49.900;8.208;2023-04-03T05:15:12;4.32;;;1.80;;
18455;SDS011;9357;49.900;8.208;2023-04-03T05:16:44;4.38;;;1.90;;
18455;SDS011;9357;49.900;8.208;2023-04-03T05:18:21;4.55;;;1.95;;
18455;SDS011;9357;49.900;8.208;2023-04-03T05:19:53;5.88;;;1.70;;
18455;SDS011;9357;49.900;8.208;2023-04-03T05:21:26;7.60;;;2.08;;
18455;SDS011;9357;49.900;8.208;2023-04-03T05:23:03;7.05;;;2.13;;
18455;SDS011;9357;49.900;8.208;2023-04-03T05:24:38;4.40;;;1.65;;
18455;SDS011;9357;49.900;8.208;2023-04-03T05:26:11;3.80;;;1.75;;
18455;SDS011;9357;49.900;8.208;2023-04-03T05:27:43;4.90;;;1.70;;
18455;SDS011;9357;49.900;8.208;2023-04-03T05:29:16;6.28;;;2.00;;
18455;SDS011;9357;49.900;8.208;2023-04-03T05:30:52;7.32;;;2.00;;
18455;SDS011;9357;49.900;8.208;2023-04-03T05:32:26;2.70;;;1.98;;
18455;SDS011;9357;49.900;8.208;2023-04-03T05:33:59;3.55;;;2.17;;
18455;SDS011;9357;49.900;8.208;2023-04-03T05:35:32;3.17;;;1.80;;
18455;SDS011;9357;49.900;8.208;2023-04-03T05:37:05;2.35;;;1.60;;
18455;SDS011;9357;49.900;8.208;2023-04-03T05:38:38;4.55;;;1.77;;
18455;SDS011;9357;49.900;8.208;2023-04-03T05:40:12;4.00;;;1.95;;
18455;SDS011;9357;49.900;8.208;2023-04-03T05:41:48;7.80;;;2.15;;
18455;SDS011;9357;49.900;8.208;2023-04-03T05:43:21;5.13;;;2.25;;
18455;SDS011;9357;49.900;8.208;2023-04-03T05:44:53;8.73;;;4.88;;
18455;SDS011;9357;49.900;8.208;2023-04-03T05:46:25;8.93;;;5.50;;
18455;SDS011;9357;49.900;8.208;2023-04-03T05:47:58;10.60;;;5.70;;
18455;SDS011;9357;49.900;8.208;2023-04-03T05:49:31;12.57;;;7.55;;
18455;SDS011;9357;49.900;8.208;2023-04-03T05:51:04;13.02;;;6.50;;
18455;SDS011;9357;49.900;8.208;2023-04-03T05:52:39;25.13;;;12.32;;
18455;SDS011;9357;49.900;8.208;2023-04-03T05:54:16;9.88;;;5.20;;
18455;SDS011;9357;49.900;8.208;2023-04-03T05:55:52;14.13;;;6.32;;
18455;SDS011;9357;49.900;8.208;2023-04-03T05:57:26;11.10;;;6.22;;
18455;SDS011;9357;49.900;8.208;2023-04-03T05:58:58;12.57;;;4.97;;
18455;SDS011;9357;49.900;8.208;2023-04-03T06:00:31;12.82;;;6.75;;
18455;SDS011;9357;49.900;8.208;2023-04-03T06:02:04;4.78;;;2.40;;
18455;SDS011;9357;49.900;8.208;2023-04-03T06:03:37;6.60;;;2.75;;
18455;SDS011;9357;49.900;8.208;2023-04-03T06:05:11;6.30;;;2.80;;
18455;SDS011;9357;49.900;8.208;2023-04-03T06:06:44;3.78;;;2.00;;
18455;SDS011;9357;49.900;8.208;2023-04-03T06:08:19;8.55;;;4.80;;
18455;SDS011;9357;49.900;8.208;2023-04-03T06:09:51;9.10;;;4.32;;
18455;SDS011;9357;49.900;8.208;2023-04-03T06:11:25;7.53;;;3.95;;
18455;SDS011;9357;49.900;8.208;2023-04-03T06:12:58;8.95;;;4.30;;
18455;SDS011;9357;49.900;8.208;2023-04-03T06:14:31;14.10;;;6.47;;
18455;SDS011;9357;49.900;8.208;2023-04-03T06:16:04;6.32;;;3.65;;
18455;SDS011;9357;49.900;8.208;2023-04-03T06:17:37;6.88;;;3.60;;
18455;SDS011;9357;49.900;8.208;2023-04-03T06:19:10;7.38;;;3.40;;
18455;SDS011;9357;49.900;8.208;2023-04-03T06:20:44;7.18;;;3.92;;
18455;SDS011;9357;49.900;8.208;2023-04-03T06:22:17;6.65;;;3.78;;
18455;SDS011;9357;49.900;8.208;2023-04-03T06:23:50;5.88;;;3.63;;
18455;SDS011;9357;49.900;8.208;2023-04-03T06:25:23;4.65;;;2.47;;
18455;SDS011;9357;49.900;8.208;2023-04-03T06:26:57;7.78;;;3.58;;
18455;SDS011;9357;49.900;8.208;2023-04-03T06:28:30;8.02;;;4.40;;
18455;SDS011;9357;49.900;8.208;2023-04-03T06:30:04;5.40;;;2.42;;
18455;SDS011;9357;49.900;8.208;2023-04-03T06:31:37;6.60;;;3.25;;
18455;SDS011;9357;49.900;8.208;2023-04-03T06:33:10;6.55;;;2.75;;
18455;SDS011;9357;49.900;8.208;2023-04-03T06:34:43;6.75;;;3.13;;
18455;SDS011;9357;49.900;8.208;2023-04-03T06:36:17;7.63;;;3.40;;
18455;SDS011;9357;49.900;8.208;2023-04-03T06:37:52;11.02;;;4.38;;
18455;SDS011;9357;49.900;8.208;2023-04-03T06:39:24;5.32;;;2.72;;
18455;SDS011;9357;49.900;8.208;2023-04-03T06:40:58;8.25;;;3.60;;
18455;SDS011;9357;49.900;8.208;2023-04-03T06:42:32;6.90;;;3.33;;
18455;SDS011;9357;49.900;8.208;2023-04-03T06:44:05;6.85;;;2.78;;
18455;SDS011;9357;49.900;8.208;2023-04-03T06:45:41;8.65;;;4.10;;
18455;SDS011;9357;49.900;8.208;2023-04-03T06:47:15;9.32;;;4.50;;
18455;SDS011;9357;49.900;8.208;2023-04-03T06:48:49;7.05;;;3.30;;
18455;SDS011;9357;49.900;8.208;2023-04-03T06:50:22;7.28;;;3.83;;
18455;SDS011;9357;49.900;8.208;2023-04-03T06:51:56;12.07;;;5.13;;
18455;SDS011;9357;49.900;8.208;2023-04-03T06:53:32;5.28;;;3.13;;
18455;SDS011;9357;49.900;8.208;2023-04-03T06:55:05;9.75;;;4.45;;
18455;SDS011;9357;49.900;8.208;2023-04-03T06:56:38;8.50;;;3.05;;
18455;SDS011;9357;49.900;8.208;2023-04-03T06:58:12;7.70;;;3.92;;
18455;SDS011;9357;49.900;8.208;2023-04-03T06:59:49;6.50;;;3.70;;
18455;SDS011;9357;49.900;8.208;2023-04-03T07:01:22;7.40;;;3.10;;
18455;SDS011;9357;49.900;8.208;2023-04-03T07:02:57;5.60;;;3.20;;
18455;SDS011;9357;49.900;8.208;2023-04-03T07:04:30;7.18;;;3.03;;
18455;SDS011;9357;49.900;8.208;2023-04-03T07:06:03;5.13;;;2.90;;
18455;SDS011;9357;49.900;8.208;2023-04-03T07:07:38;8.30;;;3.40;;
18455;SDS011;9357;49.900;8.208;2023-04-03T07:09:11;6.68;;;3.10;;
18455;SDS011;9357;49.900;8.208;2023-04-03T07:10:44;6.55;;;3.05;;
18455;SDS011;9357;49.900;8.208;2023-04-03T07:12:17;6.78;;;2.72;;
18455;SDS011;9357;49.900;8.208;2023-04-03T07:13:51;7.15;;;2.70;;
18455;SDS011;9357;49.900;8.208;2023-04-03T07:15:24;7.40;;;3.10;;
18455;SDS011;9357;49.900;8.208;2023-04-03T07:16:57;5.20;;;2.70;;
18455;SDS011;9357;49.900;8.208;2023-04-03T07:18:30;4.43;;;2.65;;
18455;SDS011;9357;49.900;8.208;2023-04-03T07:20:03;4.50;;;2.83;;
18455;SDS011;9357;49.900;8.208;2023-04-03T07:21:37;6.50;;;2.72;;
18455;SDS011;9357;49.900;8.208;2023-04-03T07:23:10;5.00;;;2.50;;
18455;SDS011;9357;49.900;8.208;2023-04-03T07:24:43;7.30;;;2.90;;
18455;SDS011;9357;49.900;8.208;2023-04-03T07:26:16;7.03;;;2.83;;
18455;SDS011;9357;49.900;8.208;2023-04-03T07:27:49;6.15;;;2.80;;
18455;SDS011;9357;49.900;8.208;2023-04-03T07:29:23;4.20;;;2.65;;
18455;SDS011;9357;49.900;8.208;2023-04-03T07:30:59;4.38;;;2.38;;
18455;SDS011;9357;49.900;8.208;2023-04-03T07:32:33;4.88;;;2.63;;
18455;SDS011;9357;49.900;8.208;2023-04-03T07:34:06;6.97;;;2.83;;
18455;SDS011;9357;49.900;8.208;2023-04-03T07:35:39;5.20;;;2.28;;
18455;SDS011;9357;49.900;8.208;2023-04-03T07:37:12;4.65;;;2.40;;
18455;SDS011;9357;49.900;8.208;2023-04-03T07:38:45;6.22;;;2.63;;
18455;SDS011;9357;49.900;8.208;2023-04-03T07:40:18;5.10;;;2.40;;
18455;SDS011;9357;49.900;8.208;2023-04-03T07:41:51;5.30;;;3.20;;
18455;SDS011;9357;49.900;8.208;2023-04-03T07:43:24;6.20;;;2.40;;
18455;SDS011;9357;49.900;8.208;2023-04-03T07:44:58;6.07;;;2.50;;
18455;SDS011;9357;49.900;8.208;2023-04-03T07:46:31;6.00;;;2.70;;
18455;SDS011;9357;49.900;8.208;2023-04-03T07:48:04;5.07;;;2.55;;
18455;SDS011;9357;49.900;8.208;2023-04-03T07:49:37;5.78;;;2.60;;
18455;SDS011;9357;49.900;8.208;2023-04-03T07:51:11;5.32;;;2.33;;
18455;SDS011;9357;49.900;8.208;2023-04-03T07:52:45;6.45;;;2.63;;
18455;SDS011;9357;49.900;8.208;2023-04-03T07:54:18;5.95;;;2.25;;
18455;SDS011;9357;49.900;8.208;2023-04-03T07:55:51;4.60;;;2.30;;
18455;SDS011;9357;49.900;8.208;2023-04-03T07:57:26;4.97;;;2.50;;
18455;SDS011;9357;49.900;8.208;2023-04-03T07:58:59;4.90;;;2.10;;
18455;SDS011;9357;49.900;8.208;2023-04-03T08:00:33;4.03;;;2.20;;
18455;SDS011;9357;49.900;8.208;2023-04-03T08:02:08;4.72;;;2.15;;
18455;SDS011;9357;49.900;8.208;2023-04-03T08:03:41;4.60;;;2.17;;
18455;SDS011;9357;49.900;8.208;2023-04-03T08:05:14;6.03;;;2.70;;
18455;SDS011;9357;49.900;8.208;2023-04-03T08:06:47;4.05;;;2.30;;
18455;SDS011;9357;49.900;8.208;2023-04-03T08:08:20;6.70;;;2.38;;
18455;SDS011;9357;49.900;8.208;2023-04-03T08:09:54;6.38;;;2.25;;
18455;SDS011;9357;49.900;8.208;2023-04-03T08:11:27;5.57;;;2.63;;
18455;SDS011;9357;49.900;8.208;2023-04-03T08:13:02;4.47;;;2.17;;
18455;SDS011;9357;49.900;8.208;2023-04-03T08:14:36;5.50;;;3.10;;
18455;SDS011;9357;49.900;8.208;2023-04-03T08:16:11;6.50;;;2.85;;
18455;SDS011;9357;49.900;8.208;2023-04-03T08:17:45;7.25;;;3.47;;
18455;SDS011;9357;49.900;8.208;2023-04-03T08:19:18;3.47;;;2.30;;
18455;SDS011;9357;49.900;8.208;2023-04-03T08:20:56;5.20;;;2.50;;
18455;SDS011;9357;49.900;8.208;2023-04-03T08:22:29;4.38;;;2.33;;
18455;SDS011;9357;49.900;8.208;2023-04-03T08:24:02;3.60;;;1.98;;
18455;SDS011;9357;49.900;8.208;2023-04-03T08:25:37;4.85;;;2.20;;
18455;SDS011;9357;49.900;8.208;2023-04-03T08:27:10;8.75;;;2.45;;
18455;SDS011;9357;49.900;8.208;2023-04-03T08:28:43;4.97;;;2.50;;
18455;SDS011;9357;49.900;8.208;2023-04-03T08:30:16;3.65;;;2.30;;
18455;SDS011;9357;49.900;8.208;2023-04-03T08:31:50;4.47;;;2.30;;
18455;SDS011;9357;49.900;8.208;2023-04-03T08:33:23;5.05;;;2.50;;
18455;SDS011;9357;49.900;8.208;2023-04-03T08:34:56;4.75;;;2.40;;
18455;SDS011;9357;49.900;8.208;2023-04-03T08:36:29;7.75;;;2.65;;
18455;SDS011;9357;49.900;8.208;2023-04-03T08:38:02;8.38;;;2.58;;
18455;SDS011;9357;49.900;8.208;2023-04-03T08:39:35;3.80;;;1.92;;
18455;SDS011;9357;49.900;8.208;2023-04-03T08:41:11;3.00;;;2.25;;
18455;SDS011;9357;49.900;8.208;2023-04-03T08:42:51;5.35;;;2.15;;
18455;SDS011;9357;49.900;8.208;2023-04-03T08:44:38;4.40;;;2.20;;
18455;SDS011;9357;49.900;8.208;2023-04-03T08:46:18;4.72;;;2.65;;
18455;SDS011;9357;49.900;8.208;2023-04-03T08:47:57;4.30;;;2.42;;
18455;SDS011;9357;49.900;8.208;2023-04-03T08:49:37;6.90;;;2.42;;
18455;SDS011;9357;49.900;8.208;2023-04-03T08:51:18;6.75;;;2.65;;
18455;SDS011;9357;49.900;8.208;2023-04-03T08:52:52;5.70;;;2.50;;
18455;SDS011;9357;49.900;8.208;2023-04-03T08:54:30;5.28;;;2.60;;
18455;SDS011;9357;49.900;8.208;2023-04-03T08:56:07;5.53;;;2.55;;
18455;SDS011;9357;49.900;8.208;2023-04-03T08:57:43;4.93;;;2.55;;
18455;SDS011;9357;49.900;8.208;2023-04-03T08:59:19;3.17;;;2.35;;
18455;SDS011;9357;49.900;8.208;2023-04-03T09:00:58;2.75;;;2.20;;
18455;SDS011;9357;49.900;8.208;2023-04-03T09:02:38;3.75;;;2.40;;
18455;SDS011;9357;49.900;8.208;2023-04-03T09:04:18;4.75;;;2.40;;
18455;SDS011;9357;49.900;8.208;2023-04-03T09:05:52;5.18;;;2.50;;
18455;SDS011;9357;49.900;8.208;2023-04-03T09:07:31;3.97;;;2.38;;
18455;SDS011;9357;49.900;8.208;2023-04-03T09:09:11;2.80;;;2.10;;
18455;SDS011;9357;49.900;8.208;2023-04-03T09:10:47;5.30;;;2.05;;
18455;SDS011;9357;49.900;8.208;2023-04-03T09:12:23;6.25;;;2.30;;
18455;SDS011;9357;49.900;8.208;2023-04-03T09:13:59;3.97;;;2.42;;
18455;SDS011;9357;49.900;8.208;2023-04-03T09:15:35;4.75;;;2.17;;
18455;SDS011;9357;49.900;8.208;2023-04-03T09:17:12;6.03;;;2.25;;
18455;SDS011;9357;49.900;8.208;2023-04-03T09:18:51;4.95;;;2.30;;
18455;SDS011;9357;49.900;8.208;2023-04-03T09:20:33;5.63;;;2.00;;
18455;SDS011;9357;49.900;8.208;2023-04-03T09:22:16;5.10;;;2.25;;
18455;SDS011;9357;49.900;8.208;2023-04-03T09:23:51;4.13;;;1.90;;
18455;SDS011;9357;49.900;8.208;2023-04-03T09:25:25;3.20;;;2.40;;
18455;SDS011;9357;49.900;8.208;2023-04-03T09:27:04;4.07;;;2.30;;
18455;SDS011;9357;49.900;8.208;2023-04-03T09:28:39;4.18;;;2.33;;
18455;SDS011;9357;49.900;8.208;2023-04-03T09:30:21;3.65;;;2.05;;
18455;SDS011;9357;49.900;8.208;2023-04-03T09:31:56;2.63;;;1.90;;
18455;SDS011;9357;49.900;8.208;2023-04-03T09:33:31;4.03;;;2.23;;